EDT,Max TemperatureF,Mean TemperatureF,Min TemperatureF,Max Dew PointF,MeanDew PointF,Min DewpointF,Max Humidity, Mean Humidity, Min Humidity, Max Sea Level PressureIn, Mean Sea Level PressureIn, Min Sea Level PressureIn, Max VisibilityMiles, Mean VisibilityMiles, Min VisibilityMiles, Max Wind SpeedMPH, Mean Wind SpeedMPH, Max Gust SpeedMPH,PrecipitationIn, CloudCover, Events, WindDirDegrees
2013-3-1,54,44,33,29,27,24,75,55,35,29.90,29.87,29.82,10,10,10,15,8,21,0.00,4,,305
2013-3-2,47,41,35,36,28,22,85,63,41,29.90,29.86,29.81,10,10,7,16,5,21,0.01,6,Rain,284
2013-3-3,49,40,30,21,18,17,59,44,29,29.98,29.91,29.84,10,10,10,17,9,23,0.00,1,,316
2013-3-4,54,41,27,23,15,8,63,40,16,30.13,30.06,29.98,10,10,10,21,7,25,0.00,0,,277
2013-3-5,56,45,34,49,38,20,89,66,43,30.07,29.89,29.57,10,10,6,18,5,26,0.09,5,Rain,195
2013-3-6,56,48,40,52,31,21,83,58,32,30.01,29.73,29.52,10,10,9,31,19,40,0.02,6,Rain,284
2013-3-7,57,47,37,28,27,24,64,48,32,30.21,30.12,30.04,10,10,10,18,11,24,0.00,0,,326
2013-3-8,58,45,31,24,23,19,72,48,23,30.28,30.20,30.13,10,10,10,23,11,32,0.00,0,,324
2013-3-9,65,50,35,33,27,25,67,46,24,30.32,30.27,30.22,10,10,10,16,6,21,0.00,0,,360
2013-3-10,69,50,30,35,23,13,89,50,11,30.32,30.25,30.19,10,10,10,12,5,15,0.00,0,,102
2013-3-11,72,56,39,54,43,20,86,60,34,30.23,30.08,29.94,10,10,6,21,8,28,0.00,4,,146
2013-3-12,75,64,52,63,56,31,97,65,33,29.93,29.83,29.74,10,9,4,21,11,30,0.46,6,Rain,204
2013-3-13,62,51,40,32,24,18,70,45,20,30.11,30.00,29.92,10,10,10,24,11,31,0.00,2,,318
2013-3-14,56,44,32,26,17,14,64,42,20,30.25,30.17,30.10,10,10,10,18,9,26,0.00,0,,294
2013-3-15,65,47,28,36,26,17,85,54,22,30.19,30.07,29.93,10,10,10,16,8,24,0.00,0,,234
2013-3-16,83,68,53,43,40,36,59,42,25,29.90,29.81,29.70,10,10,10,29,14,37,0.00,1,,228
2013-3-17,72,60,47,52,44,39,71,56,40,30.11,29.96,29.84,10,9,0,25,10,29,0.00,2,,41
2013-3-18,55,49,42,45,40,37,89,80,71,30.15,30.07,29.91,10,5,0,16,7,20,0.17,8,Rain,38
2013-3-19,72,58,44,47,36,17,100,57,14,29.99,29.87,29.80,10,9,2,20,9,26,0.00,4,Rain,307
2013-3-20,59,47,35,27,14,4,59,37,14,30.12,29.97,29.78,10,10,10,16,6,22,0.00,1,,326
2013-3-21,51,42,33,27,16,7,75,46,16,29.96,29.80,29.71,10,10,10,22,11,32,0.00,0,,315
2013-3-22,55,41,26,26,13,9,55,37,18,30.09,30.02,29.98,10,10,10,16,6,23,0.00,0,,285
2013-3-23,56,45,34,35,30,25,79,59,38,30.05,29.98,29.90,10,10,9,7,2,8,T,5,Rain,312
2013-3-24,44,41,38,43,39,34,100,85,70,29.90,29.65,29.51,10,6,1,20,9,26,0.69,7,Rain,33
2013-3-25,52,45,38,41,34,21,100,67,34,29.83,29.63,29.55,10,7,2,32,10,40,0.02,7,,267
2013-3-26,50,43,36,28,25,23,64,52,39,30.11,29.95,29.85,10,10,10,17,9,22,0.00,6,,281
2013-3-27,56,47,37,25,22,18,59,42,24,30.22,30.16,30.11,10,10,10,23,11,31,0.00,0,,306
2013-3-28,59,47,34,23,21,19,61,42,23,30.28,30.21,30.15,10,10,10,20,9,28,0.00,0,,309
2013-3-29,64,47,30,32,24,18,82,50,17,30.33,30.25,30.17,10,10,10,15,5,23,0.00,1,,280
2013-3-30,68,58,48,47,41,31,86,60,34,30.24,30.16,30.09,10,10,5,15,7,20,0.04,5,Rain,200
2013-3-31,73,61,49,55,50,41,100,75,49,30.09,29.92,29.81,10,9,3,24,10,30,0.17,6,Rain,194